createdAt,value
2023-05-06T00:00:13.039Z,85.24
2023-05-06T00:01:15.219Z,85.32
2023-05-06T00:02:17.859Z,85.49
2023-05-06T00:03:19.850Z,83.69
2023-05-06T00:04:22.249Z,82.77
2023-05-06T00:05:24.633Z,83.09
2023-05-06T00:06:27.694Z,84.05
2023-05-06T00:07:29.911Z,84.23
2023-05-06T00:08:34.925Z,83.28
2023-05-06T00:09:37.741Z,83.07
2023-05-06T00:10:39.643Z,83.42
2023-05-06T00:11:41.682Z,83.61
2023-05-06T00:12:43.957Z,83.80
2023-05-06T00:13:45.979Z,84.04
2023-05-06T00:14:48.034Z,83.70
2023-05-06T00:15:50.189Z,83.90
2023-05-06T00:16:52.145Z,83.87
2023-05-06T00:17:55.782Z,83.92
2023-05-06T00:18:57.739Z,83.69
2023-05-06T00:19:59.969Z,83.96
2023-05-06T00:21:01.871Z,83.76
2023-05-06T00:22:03.873Z,83.68
2023-05-06T00:23:05.779Z,83.61
2023-05-06T00:24:08.084Z,83.50
2023-05-06T00:25:10.654Z,83.60
2023-05-06T00:26:12.848Z,83.81
2023-05-06T00:27:14.792Z,83.45
2023-05-06T00:28:16.848Z,83.62
2023-05-06T00:29:18.762Z,83.69
2023-05-06T00:30:20.957Z,83.05
2023-05-06T00:31:22.997Z,83.35
2023-05-06T00:32:25.155Z,83.32
2023-05-06T00:33:27.358Z,83.05
2023-05-06T00:34:29.644Z,82.82
2023-05-06T00:35:31.599Z,82.84
2023-05-06T00:36:34.320Z,82.53
2023-05-06T00:37:36.325Z,82.50
2023-05-06T00:38:38.476Z,82.54
2023-05-06T00:39:40.602Z,81.99
2023-05-06T00:40:43.016Z,81.65
2023-05-06T00:41:44.907Z,81.73
2023-05-06T00:42:46.854Z,82.27
2023-05-06T00:43:48.733Z,82.23
2023-05-06T00:44:51.444Z,81.84
2023-05-06T00:45:53.728Z,82.33
2023-05-06T00:46:57.270Z,81.60
2023-05-06T00:47:59.589Z,81.23
2023-05-06T00:49:01.831Z,81.25
2023-05-06T00:50:04.255Z,81.27
2023-05-06T00:51:06.824Z,81.44
2023-05-06T00:52:09.216Z,81.12
2023-05-06T00:53:12.711Z,81.24
2023-05-06T00:54:14.871Z,81.35
2023-05-06T00:55:17.399Z,81.63
2023-05-06T00:56:20.798Z,81.11
2023-05-06T00:57:23.972Z,80.81
2023-05-06T00:58:25.984Z,81.19
2023-05-06T00:59:28.847Z,81.75
2023-05-06T01:00:30.877Z,81.75
2023-05-06T01:01:33.506Z,81.56
2023-05-06T01:02:46.563Z,81.90
2023-05-06T01:03:50.039Z,81.67
2023-05-06T01:04:52.288Z,81.57
2023-05-06T01:06:09.497Z,81.85
2023-05-06T01:07:33.180Z,81.64
2023-05-06T01:08:42.318Z,81.64
2023-05-06T01:09:50.051Z,81.83
2023-05-06T01:10:57.743Z,81.14
2023-05-06T01:12:18.054Z,81.28
2023-05-06T01:13:20.207Z,81.16
2023-05-06T01:14:36.569Z,81.61
2023-05-06T01:15:42.311Z,81.40
2023-05-06T01:16:48.168Z,81.49
2023-05-06T01:17:53.532Z,81.65
2023-05-06T01:18:56.190Z,81.57
2023-05-06T01:20:01.776Z,81.18
2023-05-06T01:21:05.803Z,81.02
2023-05-06T01:22:08.563Z,79.55
2023-05-06T01:23:14.840Z,80.55
2023-05-06T01:24:17.377Z,80.66
2023-05-06T01:26:50.334Z,81.02
2023-05-06T01:27:52.603Z,80.30
2023-05-06T01:28:55.155Z,80.17
2023-05-06T01:29:59.492Z,80.40
2023-05-06T01:31:08.106Z,80.81
2023-05-06T01:32:19.328Z,80.57
2023-05-06T01:33:29.926Z,80.89
2023-05-06T01:35:00.624Z,79.82
2023-05-06T01:36:12.676Z,80.80
2023-05-06T01:37:28.723Z,80.98
2023-05-06T01:38:49.418Z,80.82
2023-05-06T01:39:56.416Z,81.36
2023-05-06T01:41:00.896Z,81.49
2023-05-06T01:42:03.955Z,81.96
2023-05-06T01:43:07.018Z,81.59
2023-05-06T01:44:11.061Z,81.36
2023-05-06T01:45:15.687Z,81.94
2023-05-06T01:46:20.150Z,82.51
2023-05-06T01:47:22.704Z,81.91
2023-05-06T01:48:28.537Z,81.20
2023-05-06T01:49:30.781Z,80.00
2023-05-06T01:50:33.545Z,79.58
2023-05-06T01:51:35.737Z,80.04
2023-05-06T01:52:37.832Z,80.81
2023-05-06T01:53:39.976Z,79.40
2023-05-06T01:54:42.196Z,79.48
2023-05-06T01:55:44.522Z,79.37
2023-05-06T01:56:46.920Z,78.73
2023-05-06T01:57:49.417Z,79.87
2023-05-06T01:58:51.547Z,80.27
2023-05-06T01:59:53.544Z,79.77
2023-05-06T02:00:55.816Z,80.01
2023-05-06T02:01:57.907Z,79.86
2023-05-06T02:03:00.214Z,80.62
2023-05-06T02:04:02.492Z,80.48
2023-05-06T02:05:05.141Z,80.63
2023-05-06T02:06:07.452Z,80.24
2023-05-06T02:07:09.711Z,80.09
2023-05-06T02:08:11.751Z,80.37
2023-05-06T02:09:13.879Z,80.30
2023-05-06T02:10:15.971Z,80.74
2023-05-06T02:11:19.073Z,80.74
2023-05-06T02:12:21.046Z,80.38
2023-05-06T02:13:23.367Z,80.63
2023-05-06T02:14:25.331Z,80.75
2023-05-06T02:15:27.830Z,80.61
2023-05-06T02:16:29.959Z,80.06
2023-05-06T02:17:34.597Z,80.04
2023-05-06T02:18:36.991Z,79.83
2023-05-06T02:19:39.452Z,80.05
2023-05-06T02:20:41.480Z,79.68
2023-05-06T02:22:04.014Z,80.27
2023-05-06T02:23:06.279Z,80.50
2023-05-06T02:24:08.445Z,80.80
2023-05-06T02:25:11.089Z,80.47
2023-05-06T02:26:13.162Z,81.11
2023-05-06T02:27:15.336Z,81.05
2023-05-06T02:28:17.387Z,81.34
2023-05-06T02:29:19.368Z,81.78
2023-05-06T02:30:21.533Z,81.65
2023-05-06T02:31:23.922Z,82.11
2023-05-06T02:32:26.348Z,82.06
2023-05-06T02:33:28.507Z,82.57
2023-05-06T02:34:30.502Z,82.82
2023-05-06T02:35:32.736Z,82.48
2023-05-06T02:36:34.848Z,83.00
2023-05-06T02:37:37.089Z,83.09
2023-05-06T02:38:39.151Z,84.23
2023-05-06T02:39:41.422Z,84.54
2023-05-06T02:40:43.463Z,85.02
2023-05-06T02:41:45.652Z,85.07
2023-05-06T02:42:47.738Z,84.58
2023-05-06T02:43:50.039Z,85.81
2023-05-06T02:44:52.057Z,85.66
2023-05-06T02:45:54.228Z,85.24
2023-05-06T02:46:56.679Z,85.02
2023-05-06T02:47:58.918Z,85.13
2023-05-06T02:49:01.585Z,84.94
2023-05-06T02:50:03.935Z,84.38
2023-05-06T02:51:06.509Z,85.04
2023-05-06T02:52:08.846Z,85.17
2023-05-06T02:53:13.350Z,84.96
2023-05-06T02:54:15.570Z,85.25
2023-05-06T02:55:18.512Z,84.87
2023-05-06T02:56:20.805Z,85.42
2023-05-06T02:57:22.949Z,85.38
2023-05-06T02:58:26.412Z,84.38
2023-05-06T02:59:28.451Z,85.06
2023-05-06T03:00:34.068Z,85.42
2023-05-06T03:01:36.478Z,85.01
2023-05-06T03:02:39.012Z,85.06
2023-05-06T03:03:42.041Z,85.07
2023-05-06T03:04:49.717Z,84.07
2023-05-06T03:05:51.821Z,84.21
2023-05-06T03:06:54.252Z,84.70
2023-05-06T03:07:56.491Z,83.93
2023-05-06T03:08:58.845Z,83.60
2023-05-06T03:10:00.884Z,83.72
2023-05-06T03:11:03.142Z,84.69
2023-05-06T03:12:06.510Z,84.25
2023-05-06T03:13:08.914Z,84.05
2023-05-06T03:14:11.253Z,83.40
2023-05-06T03:15:13.526Z,83.87
2023-05-06T03:16:15.648Z,84.21
2023-05-06T03:17:17.946Z,84.64
2023-05-06T03:18:20.504Z,84.74
2023-05-06T03:19:22.766Z,83.97
2023-05-06T03:20:28.938Z,84.59
2023-05-06T03:21:32.071Z,84.93
2023-05-06T03:22:34.234Z,85.13
2023-05-06T03:23:36.641Z,85.24
2023-05-06T03:24:38.804Z,85.10
2023-05-06T03:25:41.227Z,85.50
2023-05-06T03:26:43.366Z,85.10
2023-05-06T03:27:45.603Z,86.27
2023-05-06T03:28:47.650Z,85.63
2023-05-06T03:29:49.810Z,85.59
2023-05-06T03:30:51.937Z,85.23
2023-05-06T03:31:57.201Z,84.87
2023-05-06T03:33:02.598Z,84.91
2023-05-06T03:34:06.870Z,85.31
2023-05-06T03:35:12.023Z,85.50
2023-05-06T03:36:17.288Z,85.67
2023-05-06T03:37:21.387Z,84.99
2023-05-06T03:38:23.576Z,85.30
2023-05-06T03:39:25.508Z,85.07
2023-05-06T03:40:27.655Z,85.89
2023-05-06T03:41:30.203Z,85.35
2023-05-06T03:42:32.459Z,85.69
2023-05-06T03:43:34.483Z,85.53
2023-05-06T03:44:36.621Z,85.25
2023-05-06T03:45:38.870Z,84.46
2023-05-06T03:46:41.997Z,85.70
2023-05-06T03:47:45.846Z,86.72
2023-05-06T03:48:51.104Z,87.11
2023-05-06T03:49:53.531Z,87.30
2023-05-06T03:50:56.079Z,87.29
2023-05-06T03:51:58.314Z,87.65
2023-05-06T03:53:11.610Z,88.10
2023-05-06T03:54:14.149Z,88.44
2023-05-06T03:55:31.726Z,88.16
2023-05-06T03:56:36.327Z,88.10
2023-05-06T03:57:39.053Z,88.08
2023-05-06T03:58:41.018Z,88.30
2023-05-06T03:59:43.064Z,88.38
2023-05-06T04:00:45.724Z,87.66
2023-05-06T04:01:47.942Z,87.65
2023-05-06T04:02:50.179Z,87.50
2023-05-06T04:03:55.684Z,87.93
2023-05-06T04:04:57.658Z,87.39
2023-05-06T04:06:02.563Z,88.10
2023-05-06T04:07:04.913Z,88.62
2023-05-06T04:08:10.610Z,88.16
2023-05-06T04:09:15.904Z,88.26
2023-05-06T04:10:18.156Z,88.04
2023-05-06T04:11:20.060Z,87.81
2023-05-06T04:12:22.097Z,87.94
2023-05-06T04:13:24.095Z,88.29
2023-05-06T04:14:26.295Z,88.80
2023-05-06T04:15:32.205Z,88.74
2023-05-06T04:16:34.529Z,88.08
2023-05-06T04:17:36.577Z,87.69
2023-05-06T04:18:40.067Z,88.16
2023-05-06T04:19:42.294Z,87.98
2023-05-06T04:20:47.237Z,88.29
2023-05-06T04:21:49.351Z,87.84
2023-05-06T04:22:52.282Z,87.90
2023-05-06T04:23:54.937Z,87.46
2023-05-06T04:24:57.145Z,87.06
2023-05-06T04:25:59.450Z,87.36
2023-05-06T04:27:03.657Z,87.08
2023-05-06T04:28:06.401Z,86.81
2023-05-06T04:29:09.320Z,86.81
2023-05-06T04:30:12.108Z,86.60
2023-05-06T04:31:14.743Z,86.92
2023-05-06T04:32:18.260Z,86.76
2023-05-06T04:33:20.364Z,86.08
2023-05-06T04:34:22.257Z,86.60
2023-05-06T04:35:24.453Z,87.33
2023-05-06T04:36:26.816Z,88.19
2023-05-06T04:37:29.261Z,87.65
2023-05-06T04:38:32.370Z,88.11
2023-05-06T04:39:34.497Z,87.65
2023-05-06T04:40:39.763Z,87.56
2023-05-06T04:41:42.053Z,87.53
2023-05-06T04:42:44.203Z,87.37
2023-05-06T04:43:46.761Z,87.84
2023-05-06T04:44:49.324Z,87.55
2023-05-06T04:45:51.755Z,86.91
2023-05-06T04:46:53.795Z,87.69
2023-05-06T04:47:56.008Z,87.75
2023-05-06T04:48:58.457Z,88.02
2023-05-06T04:50:00.637Z,88.66
2023-05-06T04:51:04.635Z,88.80
2023-05-06T04:52:07.225Z,89.16
2023-05-06T04:53:09.508Z,88.66
2023-05-06T04:54:11.829Z,88.62
2023-05-06T04:55:13.918Z,88.82
2023-05-06T04:56:16.132Z,89.26
2023-05-06T04:57:18.347Z,89.35
2023-05-06T04:58:20.700Z,89.02
2023-05-06T04:59:22.956Z,88.62
2023-05-06T05:00:26.550Z,89.24
2023-05-06T05:01:28.611Z,90.13
2023-05-06T05:02:30.994Z,89.45
2023-05-06T05:03:33.242Z,89.44
2023-05-06T05:04:35.696Z,89.51
2023-05-06T05:05:37.722Z,89.27
2023-05-06T05:06:40.076Z,89.76
2023-05-06T05:07:42.236Z,89.99
2023-05-06T05:08:44.425Z,89.29
2023-05-06T05:09:46.731Z,88.75
2023-05-06T05:10:48.871Z,88.59
2023-05-06T05:11:51.373Z,87.91
2023-05-06T05:12:53.609Z,89.34
2023-05-06T05:13:56.893Z,88.84
2023-05-06T05:14:59.729Z,88.58
2023-05-06T05:16:01.989Z,89.65
2023-05-06T05:17:04.216Z,88.69
2023-05-06T05:18:06.425Z,89.22
2023-05-06T05:19:09.378Z,89.96
2023-05-06T05:20:12.245Z,88.08
2023-05-06T05:21:14.377Z,88.00
2023-05-06T05:22:16.582Z,87.76
2023-05-06T05:23:18.928Z,88.39
2023-05-06T05:24:21.082Z,88.61
2023-05-06T05:25:23.823Z,88.84
2023-05-06T05:26:26.216Z,88.71
2023-05-06T05:27:28.580Z,88.63
2023-05-06T05:28:30.721Z,88.72
2023-05-06T05:29:33.047Z,89.53
2023-05-06T05:30:35.042Z,89.04
2023-05-06T05:31:37.220Z,89.68
2023-05-06T05:32:39.490Z,89.77
2023-05-06T05:33:41.795Z,88.82
2023-05-06T05:34:43.835Z,89.28
2023-05-06T05:35:45.989Z,89.43
2023-05-06T05:36:47.991Z,89.33
2023-05-06T05:37:50.246Z,89.11
2023-05-06T05:38:52.187Z,90.01
2023-05-06T05:39:54.305Z,89.78
2023-05-06T05:40:56.319Z,89.79
2023-05-06T05:41:58.442Z,90.36
2023-05-06T05:43:00.582Z,90.28
2023-05-06T05:44:03.039Z,88.58
2023-05-06T05:45:05.530Z,89.96
2023-05-06T05:46:08.268Z,90.42
2023-05-06T05:47:10.585Z,89.90
2023-05-06T05:48:12.774Z,89.64
2023-05-06T05:49:15.032Z,89.28
2023-05-06T05:50:17.384Z,88.33
2023-05-06T05:51:19.633Z,88.20
2023-05-06T05:52:21.887Z,87.43
2023-05-06T05:53:24.016Z,86.94
2023-05-06T05:54:26.527Z,85.61
2023-05-06T05:55:29.706Z,86.56
2023-05-06T05:56:31.808Z,86.29
2023-05-06T05:57:33.754Z,86.51
2023-05-06T05:58:35.855Z,86.64
2023-05-06T05:59:38.115Z,86.94
2023-05-06T06:00:40.502Z,85.07
2023-05-06T06:01:42.712Z,84.89
2023-05-06T06:02:45.249Z,86.15
2023-05-06T06:03:48.132Z,86.73
2023-05-06T06:04:50.402Z,86.66
2023-05-06T06:05:55.457Z,86.93
2023-05-06T06:07:02.202Z,85.74
2023-05-06T06:08:04.773Z,87.06
2023-05-06T06:09:07.640Z,87.34
2023-05-06T06:10:10.001Z,87.94
2023-05-06T06:11:12.250Z,87.63
2023-05-06T06:12:14.400Z,87.99
2023-05-06T06:13:16.840Z,87.89
2023-05-06T06:14:19.061Z,87.64
2023-05-06T06:15:22.402Z,87.92
2023-05-06T06:16:24.670Z,87.20
2023-05-06T06:17:27.071Z,87.98
2023-05-06T06:18:29.296Z,86.97
2023-05-06T06:19:31.486Z,88.14
2023-05-06T06:20:33.509Z,88.51
2023-05-06T06:21:36.097Z,88.52
2023-05-06T06:22:38.131Z,88.52
2023-05-06T06:23:40.652Z,87.71
2023-05-06T06:24:43.680Z,87.81
2023-05-06T06:25:46.212Z,87.96
2023-05-06T06:26:48.508Z,88.20
2023-05-06T06:27:50.688Z,88.68
2023-05-06T06:28:52.635Z,88.85
2023-05-06T06:29:54.785Z,89.45
2023-05-06T06:30:56.812Z,89.41
2023-05-06T06:31:59.581Z,88.01
2023-05-06T06:33:02.037Z,88.71
2023-05-06T06:34:06.769Z,89.01
2023-05-06T06:35:09.191Z,89.23
2023-05-06T06:36:11.536Z,89.76
2023-05-06T06:37:13.671Z,88.05
2023-05-06T06:38:15.827Z,88.16
2023-05-06T06:39:17.875Z,88.40
2023-05-06T06:40:20.897Z,88.32
2023-05-06T06:41:23.052Z,88.99
2023-05-06T06:42:25.636Z,88.94
2023-05-06T06:43:28.377Z,88.71
2023-05-06T06:44:31.228Z,88.61
2023-05-06T06:45:33.246Z,88.08
2023-05-06T06:46:35.508Z,87.69
2023-05-06T06:47:37.561Z,87.11
2023-05-06T06:48:39.792Z,87.19
2023-05-06T06:49:41.855Z,87.65
2023-05-06T06:50:44.060Z,87.61
2023-05-06T06:51:46.275Z,87.31
2023-05-06T06:52:48.320Z,88.55
2023-05-06T06:53:52.099Z,88.58
2023-05-06T06:54:54.367Z,87.74
2023-05-06T06:55:56.462Z,87.58
2023-05-06T06:56:58.629Z,88.62
2023-05-06T06:58:00.709Z,87.10
2023-05-06T06:59:02.826Z,88.19
2023-05-06T07:00:05.470Z,88.14
2023-05-06T07:01:11.334Z,88.95
2023-05-06T07:02:13.447Z,89.02
2023-05-06T07:03:19.892Z,88.52
2023-05-06T07:04:21.975Z,89.39
2023-05-06T07:05:24.125Z,88.65
2023-05-06T07:06:26.057Z,89.00
2023-05-06T07:07:28.322Z,88.91
2023-05-06T07:08:30.417Z,89.34
2023-05-06T07:09:35.049Z,89.73
2023-05-06T07:10:37.995Z,89.07
2023-05-06T07:11:40.076Z,89.24
2023-05-06T07:12:42.127Z,89.00
2023-05-06T07:13:44.241Z,88.11
2023-05-06T07:14:46.431Z,87.70
2023-05-06T07:15:48.591Z,88.40
2023-05-06T07:16:51.585Z,87.79
2023-05-06T07:17:54.136Z,87.65
2023-05-06T07:18:56.213Z,87.55
2023-05-06T07:19:58.402Z,88.76
2023-05-06T07:21:00.330Z,88.67
2023-05-06T07:22:03.182Z,88.03
2023-05-06T07:23:05.584Z,89.04
2023-05-06T07:24:08.092Z,89.10
2023-05-06T07:25:10.534Z,88.76
2023-05-06T07:26:12.782Z,88.62
2023-05-06T07:27:14.998Z,88.13
2023-05-06T07:28:17.268Z,88.35
2023-05-06T07:29:19.333Z,88.01
2023-05-06T07:30:23.165Z,87.00
2023-05-06T07:31:25.480Z,87.22
2023-05-06T07:32:27.535Z,88.16
2023-05-06T07:33:29.557Z,88.29
2023-05-06T07:34:31.865Z,88.36
2023-05-06T07:35:33.922Z,88.21
2023-05-06T07:36:40.822Z,86.61
2023-05-06T07:37:43.106Z,87.23
2023-05-06T07:38:45.720Z,87.38
2023-05-06T07:39:47.744Z,87.30
2023-05-06T07:40:51.065Z,87.44
2023-05-06T07:41:53.446Z,88.09
2023-05-06T07:42:55.856Z,88.42
2023-05-06T07:43:58.074Z,87.87
2023-05-06T07:45:00.040Z,87.44
2023-05-06T07:46:04.982Z,87.37
2023-05-06T07:47:07.462Z,87.88
2023-05-06T07:48:09.767Z,87.83
2023-05-06T07:49:11.966Z,88.14
2023-05-06T07:50:14.050Z,86.87
2023-05-06T07:51:16.723Z,86.90
2023-05-06T07:52:18.851Z,87.21
2023-05-06T07:53:20.869Z,87.80
2023-05-06T07:54:23.070Z,88.50
2023-05-06T07:55:24.957Z,88.53
2023-05-06T07:56:27.100Z,88.01
2023-05-06T07:57:29.118Z,88.33
2023-05-06T07:58:32.006Z,88.25
2023-05-06T07:59:34.333Z,87.54
2023-05-06T08:00:36.496Z,88.27
2023-05-06T08:01:38.570Z,88.51
2023-05-06T08:02:44.841Z,88.63
2023-05-06T08:03:47.226Z,88.23
2023-05-06T08:04:51.460Z,88.68
2023-05-06T08:05:55.382Z,88.24
2023-05-06T08:06:57.735Z,88.27
2023-05-06T08:07:59.701Z,88.73
2023-05-06T08:09:01.723Z,88.82
2023-05-06T08:10:04.434Z,88.98
2023-05-06T08:11:06.725Z,88.82
2023-05-06T08:12:08.933Z,88.31
2023-05-06T08:13:11.879Z,88.53
2023-05-06T08:14:13.976Z,89.21
2023-05-06T08:15:16.729Z,89.34
2023-05-06T08:16:18.776Z,89.72
2023-05-06T08:17:21.391Z,89.44
2023-05-06T08:18:23.604Z,89.48
2023-05-06T08:19:27.477Z,89.41
2023-05-06T08:20:29.404Z,87.53
2023-05-06T08:21:31.584Z,88.09
2023-05-06T08:22:33.736Z,86.84
2023-05-06T08:23:35.856Z,87.44
2023-05-06T08:24:37.858Z,87.10
2023-05-06T08:25:39.914Z,86.95
2023-05-06T08:26:42.073Z,87.48
2023-05-06T08:27:44.124Z,88.40
2023-05-06T08:28:46.234Z,88.58
2023-05-06T08:29:48.483Z,88.40
2023-05-06T08:30:52.407Z,87.48
2023-05-06T08:31:54.351Z,87.75
2023-05-06T08:32:56.485Z,87.72
2023-05-06T08:33:58.818Z,88.75
2023-05-06T08:35:00.980Z,88.35
2023-05-06T08:36:03.299Z,88.09
2023-05-06T08:37:05.410Z,87.39
2023-05-06T08:38:07.601Z,87.90
2023-05-06T08:39:09.561Z,86.35
2023-05-06T08:40:21.239Z,86.36
2023-05-06T08:41:26.538Z,87.75
2023-05-06T08:42:30.675Z,87.29
2023-05-06T08:43:35.510Z,87.36
2023-05-06T08:44:38.403Z,87.08
2023-05-06T08:45:41.931Z,86.79
2023-05-06T08:46:44.014Z,87.23
2023-05-06T08:47:49.017Z,86.60
2023-05-06T08:48:51.251Z,87.20
2023-05-06T08:49:53.385Z,87.11
2023-05-06T08:50:57.630Z,87.08
2023-05-06T08:52:04.506Z,86.49
2023-05-06T08:53:07.545Z,86.88
2023-05-06T08:54:11.710Z,88.51
2023-05-06T08:55:14.068Z,88.64
2023-05-06T08:56:16.950Z,88.07
2023-05-06T08:57:19.740Z,86.61
2023-05-06T08:58:22.889Z,87.50
2023-05-06T08:59:27.149Z,87.27
2023-05-06T09:00:29.183Z,87.04
2023-05-06T09:01:31.352Z,86.71
2023-05-06T09:02:33.486Z,87.27
2023-05-06T09:03:35.655Z,87.53
2023-05-06T09:04:37.762Z,87.67
2023-05-06T09:05:39.949Z,87.52
2023-05-06T09:06:42.094Z,87.38
2023-05-06T09:07:44.236Z,87.98
2023-05-06T09:08:46.200Z,87.96
2023-05-06T09:09:48.898Z,88.00
2023-05-06T09:10:50.906Z,87.62
2023-05-06T09:11:57.838Z,87.70
2023-05-06T09:13:00.037Z,87.35
2023-05-06T09:14:18.294Z,86.42
2023-05-06T09:15:24.477Z,86.73
2023-05-06T09:16:31.191Z,86.23
2023-05-06T09:17:33.367Z,86.00
2023-05-06T09:18:37.550Z,86.18
2023-05-06T09:19:39.593Z,86.68
2023-05-06T09:20:46.786Z,86.75
2023-05-06T09:21:50.688Z,86.67
2023-05-06T09:22:54.048Z,87.06
2023-05-06T09:23:56.152Z,86.94
2023-05-06T09:24:59.096Z,87.37
2023-05-06T09:26:02.046Z,86.79
2023-05-06T09:27:04.697Z,87.99
2023-05-06T09:28:12.304Z,87.16
2023-05-06T09:29:14.796Z,87.87
2023-05-06T09:30:17.054Z,87.36
2023-05-06T09:31:19.366Z,87.19
2023-05-06T09:32:22.279Z,87.93
2023-05-06T09:33:24.388Z,87.48
2023-05-06T09:34:28.022Z,87.21
